sensor_id;sensor_type;location;lat;lon;timestamp;pressure;altitude;pressure_sealevel;temperature
59339;BMP280;45117;50.960;5.500;2022-07-06T00:01:38;101762.78;;;13.17
59339;BMP280;45117;50.960;5.500;2022-07-06T00:04:05;101767.41;;;13.13
59339;BMP280;45117;50.960;5.500;2022-07-06T00:06:32;101766.63;;;13.09
59339;BMP280;45117;50.960;5.500;2022-07-06T00:08:59;101773.56;;;13.06
59339;BMP280;45117;50.960;5.500;2022-07-06T00:11:25;101765.84;;;13.01
59339;BMP280;45117;50.960;5.500;2022-07-06T00:13:52;101774.72;;;12.98
59339;BMP280;45117;50.960;5.500;2022-07-06T00:16:20;101763.56;;;12.92
59339;BMP280;45117;50.960;5.500;2022-07-06T00:18:47;101767.38;;;12.91
59339;BMP280;45117;50.960;5.500;2022-07-06T00:21:13;101766.63;;;12.87
59339;BMP280;45117;50.960;5.500;2022-07-06T00:23:40;101764.72;;;12.84
59339;BMP280;45117;50.960;5.500;2022-07-06T00:26:07;101770.47;;;12.83
59339;BMP280;45117;50.960;5.500;2022-07-06T00:28:33;101771.28;;;12.80
59339;BMP280;45117;50.960;5.500;2022-07-06T00:31:00;101768.16;;;12.78
59339;BMP280;45117;50.960;5.500;2022-07-06T00:33:29;101767.38;;;12.74
59339;BMP280;45117;50.960;5.500;2022-07-06T00:35:56;101767.38;;;12.70
59339;BMP280;45117;50.960;5.500;2022-07-06T00:38:22;101774.31;;;12.68
59339;BMP280;45117;50.960;5.500;2022-07-06T00:40:49;101768.16;;;12.63
59339;BMP280;45117;50.960;5.500;2022-07-06T00:43:15;101764.66;;;12.59
59339;BMP280;45117;50.960;5.500;2022-07-06T00:45:42;101767.38;;;12.56
59339;BMP280;45117;50.960;5.500;2022-07-06T00:48:09;101757.00;;;12.51
59339;BMP280;45117;50.960;5.500;2022-07-06T00:50:37;101760.03;;;12.49
59339;BMP280;45117;50.960;5.500;2022-07-06T00:53:05;101755.81;;;12.45
59339;BMP280;45117;50.960;5.500;2022-07-06T00:55:34;101760.81;;;12.43
59339;BMP280;45117;50.960;5.500;2022-07-06T00:58:02;101760.78;;;12.39
59339;BMP280;45117;50.960;5.500;2022-07-06T01:00:30;101762.72;;;12.35
59339;BMP280;45117;50.960;5.500;2022-07-06T01:02:57;101766.16;;;12.32
59339;BMP280;45117;50.960;5.500;2022-07-06T01:05:24;101772.34;;;12.29
59339;BMP280;45117;50.960;5.500;2022-07-06T01:07:53;101765.00;;;12.26
59339;BMP280;45117;50.960;5.500;2022-07-06T01:10:21;101762.31;;;12.22
59339;BMP280;45117;50.960;5.500;2022-07-06T01:12:48;101760.34;;;12.19
59339;BMP280;45117;50.960;5.500;2022-07-06T01:15:16;101768.81;;;12.18
59339;BMP280;45117;50.960;5.500;2022-07-06T01:17:43;101764.19;;;12.15
59339;BMP280;45117;50.960;5.500;2022-07-06T01:20:13;101763.41;;;12.11
59339;BMP280;45117;50.960;5.500;2022-07-06T01:22:39;101757.66;;;12.08
59339;BMP280;45117;50.960;5.500;2022-07-06T01:25:07;101758.78;;;12.04
59339;BMP280;45117;50.960;5.500;2022-07-06T01:27:34;101759.94;;;11.99
59339;BMP280;45117;50.960;5.500;2022-07-06T01:30:04;101756.81;;;11.97
59339;BMP280;45117;50.960;5.500;2022-07-06T01:32:31;101765.66;;;11.94
59339;BMP280;45117;50.960;5.500;2022-07-06T01:34:57;101761.03;;;11.91
59339;BMP280;45117;50.960;5.500;2022-07-06T01:37:25;101752.19;;;11.87
59339;BMP280;45117;50.960;5.500;2022-07-06T01:39:52;101750.63;;;11.86
59339;BMP280;45117;50.960;5.500;2022-07-06T01:42:19;101746.34;;;11.82
59339;BMP280;45117;50.960;5.500;2022-07-06T01:44:45;101747.91;;;11.79
59339;BMP280;45117;50.960;5.500;2022-07-06T01:47:12;101757.13;;;11.78
59339;BMP280;45117;50.960;5.500;2022-07-06T01:49:38;101756.34;;;11.74
59339;BMP280;45117;50.960;5.500;2022-07-06T01:52:05;101756.72;;;11.72
59339;BMP280;45117;50.960;5.500;2022-07-06T01:54:33;101760.13;;;11.69
59339;BMP280;45117;50.960;5.500;2022-07-06T01:57:00;101757.06;;;11.67
59339;BMP280;45117;50.960;5.500;2022-07-06T01:59:26;101753.97;;;11.65
59339;BMP280;45117;50.960;5.500;2022-07-06T02:01:53;101753.59;;;11.63
59339;BMP280;45117;50.960;5.500;2022-07-06T02:04:19;101742.03;;;11.59
59339;BMP280;45117;50.960;5.500;2022-07-06T02:06:46;101750.88;;;11.56
59339;BMP280;45117;50.960;5.500;2022-07-06T02:09:13;101751.63;;;11.53
59339;BMP280;45117;50.960;5.500;2022-07-06T02:11:41;101749.28;;;11.51
59339;BMP280;45117;50.960;5.500;2022-07-06T02:14:07;101730.84;;;11.46
59339;BMP280;45117;50.960;5.500;2022-07-06T02:16:34;101736.94;;;11.43
59339;BMP280;45117;50.960;5.500;2022-07-06T02:19:01;101729.66;;;11.40
59339;BMP280;45117;50.960;5.500;2022-07-06T02:21:28;101725.78;;;11.38
59339;BMP280;45117;50.960;5.500;2022-07-06T02:23:54;101724.63;;;11.35
59339;BMP280;45117;50.960;5.500;2022-07-06T02:26:21;101732.28;;;11.33
59339;BMP280;45117;50.960;5.500;2022-07-06T02:28:49;101733.78;;;11.31
59339;BMP280;45117;50.960;5.500;2022-07-06T02:31:15;101733.78;;;11.27
59339;BMP280;45117;50.960;5.500;2022-07-06T02:33:42;101733.38;;;11.25
59339;BMP280;45117;50.960;5.500;2022-07-06T02:36:09;101732.19;;;11.22
59339;BMP280;45117;50.960;5.500;2022-07-06T02:38:35;101728.38;;;11.20
59339;BMP280;45117;50.960;5.500;2022-07-06T02:41:02;101737.56;;;11.19
59339;BMP280;45117;50.960;5.500;2022-07-06T02:43:28;101739.44;;;11.15
59339;BMP280;45117;50.960;5.500;2022-07-06T02:45:56;101732.53;;;11.14
59339;BMP280;45117;50.960;5.500;2022-07-06T02:48:23;101751.34;;;11.14
59339;BMP280;45117;50.960;5.500;2022-07-06T02:50:49;101736.75;;;11.11
59339;BMP280;45117;50.960;5.500;2022-07-06T02:53:17;101744.03;;;11.11
59339;BMP280;45117;50.960;5.500;2022-07-06T02:55:44;101739.81;;;11.10
59339;BMP280;45117;50.960;5.500;2022-07-06T02:58:10;101732.13;;;11.08
59339;BMP280;45117;50.960;5.500;2022-07-06T03:00:37;101744.34;;;11.06
59339;BMP280;45117;50.960;5.500;2022-07-06T03:03:04;101742.81;;;11.05
59339;BMP280;45117;50.960;5.500;2022-07-06T03:05:32;101750.13;;;11.04
59339;BMP280;45117;50.960;5.500;2022-07-06T03:07:58;101743.56;;;11.02
59339;BMP280;45117;50.960;5.500;2022-07-06T03:10:25;101738.56;;;11.00
59339;BMP280;45117;50.960;5.500;2022-07-06T03:12:51;101748.56;;;11.00
59339;BMP280;45117;50.960;5.500;2022-07-06T03:15:18;101745.88;;;11.00
59339;BMP280;45117;50.960;5.500;2022-07-06T03:17:44;101741.25;;;10.97
59339;BMP280;45117;50.960;5.500;2022-07-06T03:20:12;101745.06;;;10.96
59339;BMP280;45117;50.960;5.500;2022-07-06T03:22:39;101750.03;;;10.93
59339;BMP280;45117;50.960;5.500;2022-07-06T03:25:06;101749.63;;;10.91
59339;BMP280;45117;50.960;5.500;2022-07-06T03:27:33;101748.47;;;10.89
59339;BMP280;45117;50.960;5.500;2022-07-06T03:30:01;101751.91;;;10.86
59339;BMP280;45117;50.960;5.500;2022-07-06T03:32:27;101753.78;;;10.85
59339;BMP280;45117;50.960;5.500;2022-07-06T03:34:54;101745.34;;;10.83
59339;BMP280;45117;50.960;5.500;2022-07-06T03:37:22;101758.78;;;10.83
59339;BMP280;45117;50.960;5.500;2022-07-06T03:39:48;101749.16;;;10.82
59339;BMP280;45117;50.960;5.500;2022-07-06T03:42:15;101756.47;;;10.82
59339;BMP280;45117;50.960;5.500;2022-07-06T03:44:41;101759.16;;;10.82
59339;BMP280;45117;50.960;5.500;2022-07-06T03:47:08;101755.66;;;10.81
59339;BMP280;45117;50.960;5.500;2022-07-06T03:49:34;101760.69;;;10.83
59339;BMP280;45117;50.960;5.500;2022-07-06T03:52:01;101760.31;;;10.84
59339;BMP280;45117;50.960;5.500;2022-07-06T03:54:29;101758.41;;;10.85
59339;BMP280;45117;50.960;5.500;2022-07-06T03:56:56;101765.72;;;10.88
59339;BMP280;45117;50.960;5.500;2022-07-06T03:59:22;101760.38;;;10.91
59339;BMP280;45117;50.960;5.500;2022-07-06T04:01:49;101755.41;;;10.93
59339;BMP280;45117;50.960;5.500;2022-07-06T04:04:15;101766.16;;;10.97
59339;BMP280;45117;50.960;5.500;2022-07-06T04:06:42;101763.16;;;11.02
59339;BMP280;45117;50.960;5.500;2022-07-06T04:09:08;101762.41;;;11.05
59339;BMP280;45117;50.960;5.500;2022-07-06T04:11:36;101758.59;;;11.10
59339;BMP280;45117;50.960;5.500;2022-07-06T04:14:03;101755.97;;;11.17
59339;BMP280;45117;50.960;5.500;2022-07-06T04:16:29;101768.72;;;11.24
59339;BMP280;45117;50.960;5.500;2022-07-06T04:18:56;101764.50;;;11.30
59339;BMP280;45117;50.960;5.500;2022-07-06T04:21:22;101765.34;;;11.37
59339;BMP280;45117;50.960;5.500;2022-07-06T04:23:49;101773.09;;;11.46
59339;BMP280;45117;50.960;5.500;2022-07-06T04:26:15;101767.75;;;11.53
59339;BMP280;45117;50.960;5.500;2022-07-06T04:28:43;101769.69;;;11.60
59339;BMP280;45117;50.960;5.500;2022-07-06T04:31:10;101768.22;;;11.69
59339;BMP280;45117;50.960;5.500;2022-07-06T04:33:40;101770.19;;;11.76
59339;BMP280;45117;50.960;5.500;2022-07-06T04:36:07;101767.53;;;11.83
59339;BMP280;45117;50.960;5.500;2022-07-06T04:38:33;101771.38;;;11.89
59339;BMP280;45117;50.960;5.500;2022-07-06T04:41:00;101774.13;;;11.96
59339;BMP280;45117;50.960;5.500;2022-07-06T04:43:26;101778.84;;;12.24
59339;BMP280;45117;50.960;5.500;2022-07-06T04:45:54;101782.03;;;12.90
59339;BMP280;45117;50.960;5.500;2022-07-06T04:48:21;101781.25;;;13.22
59339;BMP280;45117;50.960;5.500;2022-07-06T04:50:47;101774.69;;;13.23
59339;BMP280;45117;50.960;5.500;2022-07-06T04:53:14;101771.22;;;13.30
59339;BMP280;45117;50.960;5.500;2022-07-06T04:55:40;101773.13;;;13.43
59339;BMP280;45117;50.960;5.500;2022-07-06T04:58:07;101772.25;;;13.71
59339;BMP280;45117;50.960;5.500;2022-07-06T05:00:33;101773.91;;;14.28
59339;BMP280;45117;50.960;5.500;2022-07-06T05:03:01;101775.28;;;14.54
59339;BMP280;45117;50.960;5.500;2022-07-06T05:05:28;101778.59;;;15.17
59339;BMP280;45117;50.960;5.500;2022-07-06T05:07:54;101775.97;;;15.10
59339;BMP280;45117;50.960;5.500;2022-07-06T05:10:21;101782.53;;;15.46
59339;BMP280;45117;50.960;5.500;2022-07-06T05:12:47;101770.94;;;16.07
59339;BMP280;45117;50.960;5.500;2022-07-06T05:15:14;101785.22;;;16.61
59339;BMP280;45117;50.960;5.500;2022-07-06T05:17:40;101785.53;;;17.66
59339;BMP280;45117;50.960;5.500;2022-07-06T05:20:08;101805.78;;;19.08
59339;BMP280;45117;50.960;5.500;2022-07-06T05:22:35;101812.16;;;21.53
59339;BMP280;45117;50.960;5.500;2022-07-06T05:25:02;101808.00;;;23.08
59339;BMP280;45117;50.960;5.500;2022-07-06T05:27:28;101812.03;;;23.87
59339;BMP280;45117;50.960;5.500;2022-07-06T05:29:55;101807.50;;;25.26
59339;BMP280;45117;50.960;5.500;2022-07-06T05:32:21;101790.59;;;25.74
59339;BMP280;45117;50.960;5.500;2022-07-06T05:34:49;101799.47;;;25.43
59339;BMP280;45117;50.960;5.500;2022-07-06T05:37:17;101819.59;;;26.98
59339;BMP280;45117;50.960;5.500;2022-07-06T05:39:44;101822.03;;;27.81
59339;BMP280;45117;50.960;5.500;2022-07-06T05:42:12;101806.28;;;28.15
59339;BMP280;45117;50.960;5.500;2022-07-06T05:44:38;101809.78;;;28.94
59339;BMP280;45117;50.960;5.500;2022-07-06T05:47:05;101806.28;;;29.46
59339;BMP280;45117;50.960;5.500;2022-07-06T05:49:49;101810.13;;;29.84
59339;BMP280;45117;50.960;5.500;2022-07-06T05:52:34;101804.59;;;30.49
59339;BMP280;45117;50.960;5.500;2022-07-06T05:55:01;101808.50;;;30.83
59339;BMP280;45117;50.960;5.500;2022-07-06T05:57:28;101812.94;;;30.92
59339;BMP280;45117;50.960;5.500;2022-07-06T05:59:54;101807.63;;;30.94
59339;BMP280;45117;50.960;5.500;2022-07-06T06:02:21;101800.81;;;30.47
59339;BMP280;45117;50.960;5.500;2022-07-06T06:04:47;101792.84;;;30.02
59339;BMP280;45117;50.960;5.500;2022-07-06T06:07:14;101805.13;;;29.77
59339;BMP280;45117;50.960;5.500;2022-07-06T06:09:42;101796.63;;;29.63
59339;BMP280;45117;50.960;5.500;2022-07-06T06:12:09;101808.63;;;29.36
59339;BMP280;45117;50.960;5.500;2022-07-06T06:14:35;101803.16;;;29.19
59339;BMP280;45117;50.960;5.500;2022-07-06T06:17:02;101802.94;;;29.06
59339;BMP280;45117;50.960;5.500;2022-07-06T06:19:34;101803.78;;;28.34
59339;BMP280;45117;50.960;5.500;2022-07-06T06:22:02;101808.44;;;27.67
59339;BMP280;45117;50.960;5.500;2022-07-06T06:24:29;101802.50;;;26.94
59339;BMP280;45117;50.960;5.500;2022-07-06T06:26:57;101804.75;;;26.33
59339;BMP280;45117;50.960;5.500;2022-07-06T06:29:24;101801.13;;;25.75
59339;BMP280;45117;50.960;5.500;2022-07-06T06:31:51;101801.44;;;25.22
59339;BMP280;45117;50.960;5.500;2022-07-06T06:34:17;101797.22;;;24.77
59339;BMP280;45117;50.960;5.500;2022-07-06T06:36:44;101801.00;;;24.35
59339;BMP280;45117;50.960;5.500;2022-07-06T06:39:10;101802.81;;;24.00
59339;BMP280;45117;50.960;5.500;2022-07-06T06:41:37;101806.19;;;23.71
59339;BMP280;45117;50.960;5.500;2022-07-06T06:44:05;101808.00;;;23.50
59339;BMP280;45117;50.960;5.500;2022-07-06T06:46:31;101802.75;;;23.28
59339;BMP280;45117;50.960;5.500;2022-07-06T06:48:58;101803.81;;;23.21
59339;BMP280;45117;50.960;5.500;2022-07-06T06:51:24;101802.06;;;23.42
59339;BMP280;45117;50.960;5.500;2022-07-06T06:53:51;101806.97;;;23.71
59339;BMP280;45117;50.960;5.500;2022-07-06T06:56:18;101799.25;;;23.84
59339;BMP280;45117;50.960;5.500;2022-07-06T06:58:44;101800.19;;;24.05
59339;BMP280;45117;50.960;5.500;2022-07-06T07:01:12;101810.97;;;24.23
59339;BMP280;45117;50.960;5.500;2022-07-06T07:03:38;101807.06;;;24.39
59339;BMP280;45117;50.960;5.500;2022-07-06T07:06:05;101809.03;;;24.39
59339;BMP280;45117;50.960;5.500;2022-07-06T07:08:32;101803.13;;;24.55
59339;BMP280;45117;50.960;5.500;2022-07-06T07:10:59;101811.16;;;24.88
59339;BMP280;45117;50.960;5.500;2022-07-06T07:13:25;101809.47;;;25.25
59339;BMP280;45117;50.960;5.500;2022-07-06T07:15:51;101812.72;;;25.59
59339;BMP280;45117;50.960;5.500;2022-07-06T07:18:20;101817.78;;;25.86
59339;BMP280;45117;50.960;5.500;2022-07-06T07:20:46;101818.47;;;26.01
59339;BMP280;45117;50.960;5.500;2022-07-06T07:23:13;101819.13;;;26.17
59339;BMP280;45117;50.960;5.500;2022-07-06T07:25:39;101819.81;;;26.32
59339;BMP280;45117;50.960;5.500;2022-07-06T07:28:06;101819.34;;;26.39
59339;BMP280;45117;50.960;5.500;2022-07-06T07:30:33;101812.13;;;26.41
59339;BMP280;45117;50.960;5.500;2022-07-06T07:32:59;101809.78;;;26.60
59339;BMP280;45117;50.960;5.500;2022-07-06T07:35:28;101808.63;;;26.72
59339;BMP280;45117;50.960;5.500;2022-07-06T07:37:54;101810.69;;;26.77
59339;BMP280;45117;50.960;5.500;2022-07-06T07:40:21;101812.13;;;26.67
59339;BMP280;45117;50.960;5.500;2022-07-06T07:42:48;101816.84;;;26.67
59339;BMP280;45117;50.960;5.500;2022-07-06T07:45:14;101814.16;;;26.72
59339;BMP280;45117;50.960;5.500;2022-07-06T07:47:41;101804.41;;;26.77
59339;BMP280;45117;50.960;5.500;2022-07-06T07:50:09;101804.22;;;26.86
59339;BMP280;45117;50.960;5.500;2022-07-06T07:52:37;101803.28;;;26.95
59339;BMP280;45117;50.960;5.500;2022-07-06T07:55:05;101813.41;;;27.09
59339;BMP280;45117;50.960;5.500;2022-07-06T07:57:31;101807.44;;;27.22
59339;BMP280;45117;50.960;5.500;2022-07-06T07:59:58;101812.31;;;27.38
59339;BMP280;45117;50.960;5.500;2022-07-06T08:02:24;101806.09;;;27.48
59339;BMP280;45117;50.960;5.500;2022-07-06T08:04:51;101805.13;;;27.57
59339;BMP280;45117;50.960;5.500;2022-07-06T08:07:17;101811.41;;;27.63
59339;BMP280;45117;50.960;5.500;2022-07-06T08:09:45;101803.94;;;27.75
59339;BMP280;45117;50.960;5.500;2022-07-06T08:12:12;101801.44;;;27.88
59339;BMP280;45117;50.960;5.500;2022-07-06T08:14:38;101796.47;;;27.98
59339;BMP280;45117;50.960;5.500;2022-07-06T08:17:05;101799.25;;;28.14
59339;BMP280;45117;50.960;5.500;2022-07-06T08:19:31;101803.25;;;28.30
59339;BMP280;45117;50.960;5.500;2022-07-06T08:21:58;101798.50;;;28.36
59339;BMP280;45117;50.960;5.500;2022-07-06T08:24:24;101800.50;;;28.41
59339;BMP280;45117;50.960;5.500;2022-07-06T08:26:52;101803.03;;;28.45
59339;BMP280;45117;50.960;5.500;2022-07-06T08:29:19;101801.00;;;28.45
59339;BMP280;45117;50.960;5.500;2022-07-06T08:31:46;101802.03;;;28.48
59339;BMP280;45117;50.960;5.500;2022-07-06T08:34:12;101806.81;;;28.47
59339;BMP280;45117;50.960;5.500;2022-07-06T08:36:39;101811.31;;;28.45
59339;BMP280;45117;50.960;5.500;2022-07-06T08:39:06;101799.25;;;28.37
59339;BMP280;45117;50.960;5.500;2022-07-06T08:41:34;101806.81;;;28.31
59339;BMP280;45117;50.960;5.500;2022-07-06T08:44:02;101803.28;;;28.36
59339;BMP280;45117;50.960;5.500;2022-07-06T08:46:29;101798.25;;;28.40
59339;BMP280;45117;50.960;5.500;2022-07-06T08:48:56;101795.50;;;28.40
59339;BMP280;45117;50.960;5.500;2022-07-06T08:51:24;101790.97;;;28.37
59339;BMP280;45117;50.960;5.500;2022-07-06T08:53:51;101791.69;;;28.26
59339;BMP280;45117;50.960;5.500;2022-07-06T08:56:18;101796.97;;;28.30
59339;BMP280;45117;50.960;5.500;2022-07-06T08:58:45;101792.75;;;28.40
59339;BMP280;45117;50.960;5.500;2022-07-06T09:01:12;101792.72;;;28.51
59339;BMP280;45117;50.960;5.500;2022-07-06T09:03:40;101798.75;;;28.38
59339;BMP280;45117;50.960;5.500;2022-07-06T09:06:07;101784.69;;;28.31
59339;BMP280;45117;50.960;5.500;2022-07-06T09:08:35;101792.47;;;28.15
59339;BMP280;45117;50.960;5.500;2022-07-06T09:11:02;101784.38;;;27.95
59339;BMP280;45117;50.960;5.500;2022-07-06T09:13:29;101778.09;;;27.83
59339;BMP280;45117;50.960;5.500;2022-07-06T09:15:55;101770.03;;;27.74
59339;BMP280;45117;50.960;5.500;2022-07-06T09:18:37;101780.28;;;27.57
59339;BMP280;45117;50.960;5.500;2022-07-06T09:21:04;101786.25;;;27.44
59339;BMP280;45117;50.960;5.500;2022-07-06T09:23:32;101787.94;;;27.31
59339;BMP280;45117;50.960;5.500;2022-07-06T09:26:01;101790.34;;;27.12
59339;BMP280;45117;50.960;5.500;2022-07-06T09:28:40;101784.28;;;27.08
59339;BMP280;45117;50.960;5.500;2022-07-06T09:31:07;101786.59;;;27.09
59339;BMP280;45117;50.960;5.500;2022-07-06T09:33:34;101787.16;;;27.25
59339;BMP280;45117;50.960;5.500;2022-07-06T09:36:03;101791.47;;;27.37
59339;BMP280;45117;50.960;5.500;2022-07-06T09:38:31;101794.81;;;27.52
59339;BMP280;45117;50.960;5.500;2022-07-06T09:40:57;101801.63;;;27.57
59339;BMP280;45117;50.960;5.500;2022-07-06T09:43:27;101800.56;;;27.48
59339;BMP280;45117;50.960;5.500;2022-07-06T09:45:55;101793.69;;;27.27
59339;BMP280;45117;50.960;5.500;2022-07-06T09:48:23;101802.34;;;27.03
59339;BMP280;45117;50.960;5.500;2022-07-06T09:50:51;101800.91;;;26.76
59339;BMP280;45117;50.960;5.500;2022-07-06T09:53:21;101803.72;;;26.51
59339;BMP280;45117;50.960;5.500;2022-07-06T09:55:51;101798.50;;;26.32
59339;BMP280;45117;50.960;5.500;2022-07-06T09:58:18;101796.63;;;26.18
59339;BMP280;45117;50.960;5.500;2022-07-06T10:00:46;101795.22;;;26.28
59339;BMP280;45117;50.960;5.500;2022-07-06T10:03:14;101795.69;;;26.53
59339;BMP280;45117;50.960;5.500;2022-07-06T10:05:42;101790.81;;;26.68
59339;BMP280;45117;50.960;5.500;2022-07-06T10:08:10;101793.19;;;26.81
59339;BMP280;45117;50.960;5.500;2022-07-06T10:10:38;101799.41;;;26.81
59339;BMP280;45117;50.960;5.500;2022-07-06T10:13:06;101794.75;;;26.93
59339;BMP280;45117;50.960;5.500;2022-07-06T10:15:33;101797.84;;;27.06
59339;BMP280;45117;50.960;5.500;2022-07-06T10:18:02;101802.13;;;27.07
59339;BMP280;45117;50.960;5.500;2022-07-06T10:20:30;101793.31;;;27.03
59339;BMP280;45117;50.960;5.500;2022-07-06T10:22:58;101793.00;;;26.95
59339;BMP280;45117;50.960;5.500;2022-07-06T10:25:26;101795.00;;;26.95
59339;BMP280;45117;50.960;5.500;2022-07-06T10:27:55;101793.75;;;26.96
59339;BMP280;45117;50.960;5.500;2022-07-06T10:30:22;101789.91;;;26.82
59339;BMP280;45117;50.960;5.500;2022-07-06T10:32:50;101794.84;;;26.72
59339;BMP280;45117;50.960;5.500;2022-07-06T10:35:18;101791.47;;;26.57
59339;BMP280;45117;50.960;5.500;2022-07-06T10:37:46;101787.94;;;26.57
59339;BMP280;45117;50.960;5.500;2022-07-06T10:40:32;101794.50;;;26.59
59339;BMP280;45117;50.960;5.500;2022-07-06T10:43:17;101790.50;;;26.60
59339;BMP280;45117;50.960;5.500;2022-07-06T10:45:50;101793.06;;;26.69
59339;BMP280;45117;50.960;5.500;2022-07-06T10:48:19;101805.25;;;26.89
59339;BMP280;45117;50.960;5.500;2022-07-06T10:50:47;101799.03;;;26.99
59339;BMP280;45117;50.960;5.500;2022-07-06T10:53:16;101797.09;;;27.05
59339;BMP280;45117;50.960;5.500;2022-07-06T10:55:44;101793.88;;;27.12
59339;BMP280;45117;50.960;5.500;2022-07-06T10:58:13;101793.63;;;27.16
59339;BMP280;45117;50.960;5.500;2022-07-06T11:00:49;101801.44;;;27.18
59339;BMP280;45117;50.960;5.500;2022-07-06T11:03:36;101793.81;;;27.01
59339;BMP280;45117;50.960;5.500;2022-07-06T11:06:06;101785.91;;;26.83
59339;BMP280;45117;50.960;5.500;2022-07-06T11:08:49;101782.56;;;26.68
59339;BMP280;45117;50.960;5.500;2022-07-06T11:11:17;101790.75;;;26.62
59339;BMP280;45117;50.960;5.500;2022-07-06T11:13:52;101787.75;;;26.60
59339;BMP280;45117;50.960;5.500;2022-07-06T11:16:21;101780.44;;;26.57
59339;BMP280;45117;50.960;5.500;2022-07-06T11:18:50;101783.16;;;26.52
59339;BMP280;45117;50.960;5.500;2022-07-06T11:21:32;101784.41;;;26.51
59339;BMP280;45117;50.960;5.500;2022-07-06T11:23:59;101789.38;;;26.47
59339;BMP280;45117;50.960;5.500;2022-07-06T11:26:26;101794.09;;;26.46
59339;BMP280;45117;50.960;5.500;2022-07-06T11:28:53;101798.56;;;26.38
59339;BMP280;45117;50.960;5.500;2022-07-06T11:31:22;101790.75;;;26.31
59339;BMP280;45117;50.960;5.500;2022-07-06T11:33:49;101793.72;;;26.27
59339;BMP280;45117;50.960;5.500;2022-07-06T11:36:17;101792.38;;;26.17
59339;BMP280;45117;50.960;5.500;2022-07-06T11:38:44;101784.78;;;26.12
59339;BMP280;45117;50.960;5.500;2022-07-06T11:41:11;101778.66;;;26.02
59339;BMP280;45117;50.960;5.500;2022-07-06T11:43:40;101775.09;;;25.96
59339;BMP280;45117;50.960;5.500;2022-07-06T11:46:25;101769.31;;;25.94
59339;BMP280;45117;50.960;5.500;2022-07-06T11:48:54;101762.84;;;25.97
59339;BMP280;45117;50.960;5.500;2022-07-06T11:51:22;101759.94;;;26.06
59339;BMP280;45117;50.960;5.500;2022-07-06T11:53:50;101765.13;;;26.25
59339;BMP280;45117;50.960;5.500;2022-07-06T11:56:18;101763.78;;;26.46
59339;BMP280;45117;50.960;5.500;2022-07-06T11:58:48;101771.00;;;26.69
59339;BMP280;45117;50.960;5.500;2022-07-06T12:01:15;101765.63;;;26.92
59339;BMP280;45117;50.960;5.500;2022-07-06T12:03:43;101766.50;;;27.09
59339;BMP280;45117;50.960;5.500;2022-07-06T12:06:15;101766.22;;;27.01
59339;BMP280;45117;50.960;5.500;2022-07-06T12:08:44;101770.69;;;26.93
59339;BMP280;45117;50.960;5.500;2022-07-06T12:11:16;101762.91;;;26.97
59339;BMP280;45117;50.960;5.500;2022-07-06T12:13:43;101758.75;;;27.13
59339;BMP280;45117;50.960;5.500;2022-07-06T12:16:11;101755.06;;;27.33
59339;BMP280;45117;50.960;5.500;2022-07-06T12:18:38;101746.63;;;27.59
59339;BMP280;45117;50.960;5.500;2022-07-06T12:21:09;101743.16;;;27.75
59339;BMP280;45117;50.960;5.500;2022-07-06T12:23:40;101740.16;;;27.84
59339;BMP280;45117;50.960;5.500;2022-07-06T12:26:07;101741.69;;;27.91
59339;BMP280;45117;50.960;5.500;2022-07-06T12:28:34;101733.41;;;27.91
59339;BMP280;45117;50.960;5.500;2022-07-06T12:31:00;101738.69;;;27.94
59339;BMP280;45117;50.960;5.500;2022-07-06T12:33:27;101724.59;;;27.92
59339;BMP280;45117;50.960;5.500;2022-07-06T12:35:54;101723.34;;;27.88
59339;BMP280;45117;50.960;5.500;2022-07-06T12:38:23;101727.38;;;27.92
59339;BMP280;45117;50.960;5.500;2022-07-06T12:40:50;101727.91;;;28.02
59339;BMP280;45117;50.960;5.500;2022-07-06T12:43:34;101713.84;;;28.16
59339;BMP280;45117;50.960;5.500;2022-07-06T12:46:28;101718.09;;;28.34
59339;BMP280;45117;50.960;5.500;2022-07-06T12:48:56;101719.59;;;28.41
59339;BMP280;45117;50.960;5.500;2022-07-06T12:51:23;101716.34;;;28.31
59339;BMP280;45117;50.960;5.500;2022-07-06T12:53:51;101713.06;;;28.21
59339;BMP280;45117;50.960;5.500;2022-07-06T12:56:18;101717.59;;;28.13
59339;BMP280;45117;50.960;5.500;2022-07-06T12:58:57;101721.34;;;28.05
59339;BMP280;45117;50.960;5.500;2022-07-06T13:01:24;101711.06;;;27.89
59339;BMP280;45117;50.960;5.500;2022-07-06T13:03:54;101714.28;;;27.70
59339;BMP280;45117;50.960;5.500;2022-07-06T13:06:29;101718.28;;;27.64
59339;BMP280;45117;50.960;5.500;2022-07-06T13:08:58;101713.75;;;27.55
59339;BMP280;45117;50.960;5.500;2022-07-06T13:11:24;101713.75;;;27.55
59339;BMP280;45117;50.960;5.500;2022-07-06T13:13:51;101709.22;;;27.52
59339;BMP280;45117;50.960;5.500;2022-07-06T13:16:18;101715.75;;;27.55
59339;BMP280;45117;50.960;5.500;2022-07-06T13:18:44;101712.50;;;27.62
59339;BMP280;45117;50.960;5.500;2022-07-06T13:21:11;101712.28;;;27.71
59339;BMP280;45117;50.960;5.500;2022-07-06T13:23:37;101706.50;;;27.74
59339;BMP280;45117;50.960;5.500;2022-07-06T13:26:05;101706.78;;;27.82
59339;BMP280;45117;50.960;5.500;2022-07-06T13:28:32;101699.78;;;27.98
59339;BMP280;45117;50.960;5.500;2022-07-06T13:30:59;101698.00;;;28.11
59339;BMP280;45117;50.960;5.500;2022-07-06T13:33:26;101710.56;;;28.24
59339;BMP280;45117;50.960;5.500;2022-07-06T13:35:52;101704.28;;;28.40
59339;BMP280;45117;50.960;5.500;2022-07-06T13:38:19;101704.47;;;28.64
59339;BMP280;45117;50.960;5.500;2022-07-06T13:40:46;101702.13;;;28.90
59339;BMP280;45117;50.960;5.500;2022-07-06T13:43:14;101703.03;;;29.10
59339;BMP280;45117;50.960;5.500;2022-07-06T13:45:40;101710.59;;;29.15
59339;BMP280;45117;50.960;5.500;2022-07-06T13:48:07;101694.75;;;29.10
59339;BMP280;45117;50.960;5.500;2022-07-06T13:50:33;101696.75;;;29.09
59339;BMP280;45117;50.960;5.500;2022-07-06T13:53:00;101689.41;;;29.23
59339;BMP280;45117;50.960;5.500;2022-07-06T13:55:26;101696.84;;;29.39
59339;BMP280;45117;50.960;5.500;2022-07-06T13:57:53;101689.47;;;29.53
59339;BMP280;45117;50.960;5.500;2022-07-06T14:00:21;101686.09;;;29.65